Terminal Aerodrome Forecast
Issued by NWS

Home | Current Version | Previous Version | Text Only | Print | Product List | Glossary On
Versions: 1 2 3 4 5 6 7 8 9 10 11 12 13 14 15 16 17 18
447
FTUS43 KMQT 041120
TAFSAW
TAF
KSAW 041120Z 0412/0512 19005KT P6SM OVC020
     FM041400 19006KT P6SM OVC035
     FM042000 18008KT 3SM -SN OVC015
     FM042100 18007KT 1 1/2SM -SN OVC015
     FM050600 21005KT P6SM OVC015
     FM051000 24006KT P6SM BKN025
     FM051100 24005KT P6SM SCT030=

USA.gov is the U.S. government's official web portal to all federal, state and local government web resources and services.